KLM192 EHAM-LPPD
Flight info
| Callsign | KLM192 |
|---|---|
| Flight time | 3h 46m |
| Altitude | 23000 |
| Route | WOODY N872 CIV/N0485F370 DCT KOVIN DCT NIDUV DCT KIHVI DCT PON DCT DITAL DCT GODIX/N0488F390 DCT DIDAK DCT KURIS DCT TERPO DCT ERIGA DCT AZFIC DCT LOTEE DCT PETEK DCT ERPES/M085F400 DCT LENSI DCT BEKUN DCT OMOBI |
| Aircraft | A35K/H-SDE2E3GHIJ3J4J5LM1ORWXY/LB1D1 |
Departure
| Time | 2026-04-29 05:16 |
|---|---|
| Airport | Amsterdam Airport Schiphol (EHAM) |
Arrival
| Time | 2026-04-29 09:03 |
|---|---|
| Airport | João Paulo II Airport (LPPD) |
| Time | Latitude | Longitude | Altitude | Speed | Heading |
|---|---|---|---|---|---|
| 2026-04-29 04:58 | 52.31217 | 4.76535 | 3 ft | 0 kts | 124° |
| 2026-04-29 05:05 | 52.31217 | 4.76534 | 4 ft | 0 kts | 124° |
| 2026-04-29 05:07 | 52.31220 | 4.76527 | 3 ft | 4 kts | 122° |
| 2026-04-29 05:07 | 52.31232 | 4.76488 | 3 ft | 4 kts | 101° |
| 2026-04-29 05:07 | 52.31231 | 4.76448 | 3 ft | 4 kts | 58° |
| 2026-04-29 05:08 | 52.31215 | 4.76425 | 3 ft | 1 kts | 15° |
| 2026-04-29 05:08 | 52.31214 | 4.76424 | 3 ft | 0 kts | 15° |
| 2026-04-29 05:09 | 52.31216 | 4.76425 | 3 ft | 1 kts | 15° |
| 2026-04-29 05:09 | 52.31236 | 4.76433 | 3 ft | 5 kts | 13° |
| 2026-04-29 05:10 | 52.31280 | 4.76443 | 3 ft | 8 kts | 4° |
| 2026-04-29 05:10 | 52.31344 | 4.76434 | 3 ft | 11 kts | 346° |
| 2026-04-29 05:10 | 52.31425 | 4.76394 | 3 ft | 14 kts | 342° |
| 2026-04-29 05:10 | 52.31513 | 4.76316 | 4 ft | 16 kts | 310° |
| 2026-04-29 05:11 | 52.31537 | 4.76135 | 4 ft | 18 kts | 268° |
| 2026-04-29 05:11 | 52.31530 | 4.75919 | 4 ft | 20 kts | 266° |
| 2026-04-29 05:11 | 52.31521 | 4.75672 | 3 ft | 23 kts | 267° |
| 2026-04-29 05:11 | 52.31512 | 4.75399 | 3 ft | 25 kts | 266° |
| 2026-04-29 05:12 | 52.31501 | 4.75104 | 3 ft | 26 kts | 267° |
| 2026-04-29 05:12 | 52.31494 | 4.74875 | 3 ft | 17 kts | 267° |
| 2026-04-29 05:12 | 52.31496 | 4.74727 | 3 ft | 12 kts | 291° |
| 2026-04-29 05:12 | 52.31556 | 4.74664 | 4 ft | 6 kts | 353° |
| 2026-04-29 05:13 | 52.31557 | 4.74664 | 4 ft | 0 kts | 353° |
| 2026-04-29 05:13 | 52.31560 | 4.74664 | 4 ft | 2 kts | 353° |
| 2026-04-29 05:13 | 52.31573 | 4.74662 | 5 ft | 0 kts | 356° |
| 2026-04-29 05:15 | 52.31649 | 4.74716 | 7 ft | 16 kts | 55° |
| 2026-04-29 05:15 | 52.31672 | 4.74881 | 2 ft | 0 kts | 87° |
| 2026-04-29 05:16 | 52.31674 | 4.74936 | 1 ft | 27 kts | 87° |
| 2026-04-29 05:16 | 52.31705 | 4.75825 | 4 ft | 128 kts | 87° |
| 2026-04-29 05:16 | 52.31770 | 4.77666 | 298 ft | 188 kts | 85° |
| 2026-04-29 05:16 | 52.31890 | 4.80063 | 887 ft | 237 kts | 84° |
| 2026-04-29 05:17 | 52.31865 | 4.82986 | 1723 ft | 277 kts | 103° |
| 2026-04-29 05:17 | 52.30883 | 4.85646 | 3026 ft | 273 kts | 136° |
| 2026-04-29 05:17 | 52.29208 | 4.86942 | 4437 ft | 267 kts | 166° |
| 2026-04-29 05:17 | 52.27381 | 4.86989 | 5650 ft | 259 kts | 175° |
| 2026-04-29 05:18 | 52.25608 | 4.86673 | 6700 ft | 257 kts | 195° |
| 2026-04-29 05:18 | 52.23930 | 4.85704 | 7669 ft | 254 kts | 188° |
| 2026-04-29 05:18 | 52.22198 | 4.85220 | 8526 ft | 254 kts | 182° |
| 2026-04-29 05:18 | 52.20376 | 4.84939 | 8985 ft | 274 kts | 180° |
| 2026-04-29 05:19 | 52.18410 | 4.84779 | 9566 ft | 288 kts | 179° |
| 2026-04-29 05:19 | 52.16389 | 4.84674 | 10413 ft | 293 kts | 178° |
| 2026-04-29 05:19 | 52.14299 | 4.84596 | 10972 ft | 311 kts | 178° |
| 2026-04-29 05:19 | 52.12049 | 4.84536 | 11328 ft | 334 kts | 179° |
| 2026-04-29 05:20 | 52.09655 | 4.84480 | 11679 ft | 355 kts | 179° |
| 2026-04-29 05:20 | 52.07120 | 4.84421 | 12085 ft | 373 kts | 179° |
| 2026-04-29 05:20 | 52.04489 | 4.84362 | 12730 ft | 381 kts | 180° |
| 2026-04-29 05:20 | 52.01838 | 4.83871 | 13424 ft | 390 kts | 193° |
| 2026-04-29 05:21 | 51.99298 | 4.82252 | 14149 ft | 396 kts | 205° |
| 2026-04-29 05:21 | 51.96812 | 4.80280 | 14924 ft | 399 kts | 205° |
| 2026-04-29 05:21 | 51.94308 | 4.78276 | 15634 ft | 404 kts | 205° |
| 2026-04-29 05:21 | 51.91767 | 4.76261 | 16287 ft | 409 kts | 205° |
| 2026-04-29 05:22 | 51.89197 | 4.74229 | 16943 ft | 414 kts | 205° |
| 2026-04-29 05:22 | 51.86595 | 4.72188 | 17613 ft | 418 kts | 205° |
| 2026-04-29 05:22 | 51.83956 | 4.70126 | 18272 ft | 423 kts | 205° |
| 2026-04-29 05:22 | 51.81287 | 4.68045 | 18938 ft | 428 kts | 205° |
| 2026-04-29 05:23 | 51.78592 | 4.65947 | 19619 ft | 432 kts | 205° |
| 2026-04-29 05:23 | 51.75867 | 4.63826 | 20265 ft | 438 kts | 204° |
| 2026-04-29 05:23 | 51.73107 | 4.61682 | 20892 ft | 443 kts | 204° |
| 2026-04-29 05:23 | 51.70315 | 4.59518 | 21485 ft | 448 kts | 204° |
| 2026-04-29 05:24 | 51.67489 | 4.57330 | 22091 ft | 453 kts | 204° |
| 2026-04-29 05:24 | 51.64631 | 4.55115 | 22707 ft | 457 kts | 204° |
| 2026-04-29 05:24 | 51.61752 | 4.52895 | 23147 ft | 461 kts | 204° |
| 2026-04-29 05:24 | 51.58844 | 4.50659 | 23298 ft | 468 kts | 204° |
| 2026-04-29 05:25 | 51.55863 | 4.48370 | 23295 ft | 478 kts | 204° |
| 2026-04-29 05:25 | 51.52854 | 4.46059 | 23292 ft | 480 kts | 204° |
| 2026-04-29 05:25 | 51.49838 | 4.43744 | 23294 ft | 480 kts | 204° |
| 2026-04-29 05:25 | 51.46823 | 4.41435 | 23293 ft | 480 kts | 204° |
| 2026-04-29 05:26 | 51.44825 | 4.39907 | 23294 ft | 480 kts | 204° |
| 2026-04-29 05:26 | 51.40797 | 4.36829 | 23294 ft | 480 kts | 204° |
| 2026-04-29 05:26 | 51.38800 | 4.35305 | 23294 ft | 479 kts | 204° |
| 2026-04-29 05:26 | 51.35790 | 4.33014 | 23294 ft | 479 kts | 204° |
| 2026-04-29 05:27 | 51.32782 | 4.30729 | 23294 ft | 478 kts | 204° |
| 2026-04-29 05:27 | 51.26773 | 4.26166 | 23294 ft | 478 kts | 204° |
| 2026-04-29 05:27 | 51.22797 | 4.23153 | 23293 ft | 477 kts | 204° |
| 2026-04-29 05:28 | 51.20768 | 4.21618 | 23294 ft | 477 kts | 204° |
| 2026-04-29 05:28 | 51.17770 | 4.19377 | 23289 ft | 476 kts | 202° |
| 2026-04-29 05:28 | 51.14695 | 4.17448 | 23285 ft | 474 kts | 199° |
| 2026-04-29 05:28 | 51.11598 | 4.15652 | 23284 ft | 474 kts | 198° |
| 2026-04-29 05:29 | 51.08493 | 4.13924 | 23286 ft | 473 kts | 198° |
| 2026-04-29 05:29 | 51.05375 | 4.12223 | 23280 ft | 472 kts | 198° |
| 2026-04-29 05:29 | 51.02268 | 4.10544 | 23264 ft | 471 kts | 198° |
| 2026-04-29 05:29 | 50.99207 | 4.08891 | 23281 ft | 471 kts | 198° |
| 2026-04-29 05:30 | 50.96112 | 4.07216 | 23281 ft | 470 kts | 198° |
| 2026-04-29 05:30 | 50.93021 | 4.05541 | 23261 ft | 469 kts | 198° |
| 2026-04-29 05:30 | 50.89932 | 4.03863 | 23267 ft | 469 kts | 198° |
| 2026-04-29 05:30 | 50.86846 | 4.02183 | 23261 ft | 468 kts | 199° |
| 2026-04-29 05:31 | 50.83804 | 4.00380 | 23259 ft | 468 kts | 201° |
| 2026-04-29 05:31 | 50.80788 | 3.98438 | 23248 ft | 467 kts | 202° |
| 2026-04-29 05:31 | 50.77802 | 3.96454 | 23247 ft | 466 kts | 202° |
| 2026-04-29 05:31 | 50.74816 | 3.94468 | 23248 ft | 464 kts | 202° |
| 2026-04-29 05:32 | 50.71840 | 3.92512 | 23245 ft | 464 kts | 202° |
| 2026-04-29 05:32 | 50.68852 | 3.90574 | 23247 ft | 463 kts | 202° |
| 2026-04-29 05:32 | 50.65872 | 3.88662 | 23246 ft | 462 kts | 202° |
| 2026-04-29 05:32 | 50.62893 | 3.86764 | 23239 ft | 462 kts | 202° |
| 2026-04-29 05:33 | 50.59912 | 3.84872 | 23302 ft | 461 kts | 202° |
| 2026-04-29 05:33 | 50.56946 | 3.82994 | 23929 ft | 457 kts | 202° |
| 2026-04-29 05:33 | 50.54022 | 3.81090 | 24790 ft | 455 kts | 203° |
| 2026-04-29 05:33 | 50.51114 | 3.79113 | 25439 ft | 456 kts | 204° |
| 2026-04-29 05:34 | 50.48200 | 3.77097 | 26041 ft | 458 kts | 204° |
| 2026-04-29 05:34 | 50.45279 | 3.75073 | 26654 ft | 460 kts | 205° |
| 2026-04-29 05:34 | 50.42336 | 3.73043 | 27231 ft | 463 kts | 205° |
| 2026-04-29 05:34 | 50.39378 | 3.71014 | 27778 ft | 465 kts | 205° |
| 2026-04-29 05:35 | 50.36403 | 3.68987 | 28318 ft | 467 kts | 205° |
| 2026-04-29 05:35 | 50.33416 | 3.66959 | 28816 ft | 470 kts | 205° |
| 2026-04-29 05:35 | 50.30404 | 3.64922 | 29302 ft | 472 kts | 205° |
| 2026-04-29 05:35 | 50.27385 | 3.62884 | 29766 ft | 474 kts | 205° |
| 2026-04-29 05:36 | 50.24346 | 3.60837 | 30193 ft | 477 kts | 206° |
| 2026-04-29 05:36 | 50.21295 | 3.58782 | 30600 ft | 479 kts | 206° |
| 2026-04-29 05:36 | 50.18227 | 3.56718 | 30998 ft | 481 kts | 206° |
| 2026-04-29 05:36 | 50.15155 | 3.54651 | 31446 ft | 481 kts | 206° |
| 2026-04-29 05:37 | 50.12084 | 3.52594 | 31954 ft | 480 kts | 205° |
| 2026-04-29 05:37 | 50.09020 | 3.50548 | 32448 ft | 478 kts | 206° |
| 2026-04-29 05:37 | 50.05972 | 3.48512 | 32943 ft | 476 kts | 206° |
| 2026-04-29 05:37 | 50.02940 | 3.46486 | 33419 ft | 474 kts | 206° |
| 2026-04-29 05:38 | 49.99914 | 3.44467 | 33862 ft | 473 kts | 206° |
| 2026-04-29 05:38 | 49.96893 | 3.42455 | 34319 ft | 470 kts | 206° |
| 2026-04-29 05:38 | 49.93898 | 3.40463 | 34835 ft | 466 kts | 206° |
| 2026-04-29 05:38 | 49.90924 | 3.38486 | 35213 ft | 465 kts | 206° |
| 2026-04-29 05:39 | 49.87942 | 3.36506 | 35446 ft | 467 kts | 206° |
| 2026-04-29 05:39 | 49.84946 | 3.34520 | 35704 ft | 469 kts | 205° |
| 2026-04-29 05:39 | 49.81947 | 3.32535 | 35980 ft | 469 kts | 205° |
| 2026-04-29 05:39 | 49.78947 | 3.30554 | 36263 ft | 469 kts | 205° |
| 2026-04-29 05:40 | 49.75939 | 3.28570 | 36517 ft | 470 kts | 205° |
| 2026-04-29 05:40 | 49.72970 | 3.26613 | 36737 ft | 471 kts | 205° |
| 2026-04-29 05:40 | 49.69958 | 3.24632 | 37009 ft | 470 kts | 205° |
| 2026-04-29 05:40 | 49.66945 | 3.22651 | 37136 ft | 471 kts | 205° |
| 2026-04-29 05:41 | 49.60939 | 3.18715 | 37148 ft | 467 kts | 205° |
| 2026-04-29 05:41 | 49.54966 | 3.14784 | 37144 ft | 466 kts | 207° |
| 2026-04-29 05:42 | 49.49532 | 3.09507 | 37137 ft | 462 kts | 222° |
| 2026-04-29 05:42 | 49.45385 | 3.02059 | 37137 ft | 459 kts | 239° |
| 2026-04-29 05:43 | 49.42149 | 2.93605 | 37128 ft | 459 kts | 241° |
| 2026-04-29 05:43 | 49.39034 | 2.85048 | 37128 ft | 459 kts | 241° |
| 2026-04-29 05:44 | 49.35892 | 2.76513 | 37124 ft | 459 kts | 240° |
| 2026-04-29 05:44 | 49.32749 | 2.67988 | 37122 ft | 460 kts | 242° |
| 2026-04-29 05:45 | 49.29725 | 2.59344 | 37117 ft | 460 kts | 242° |
| 2026-04-29 05:45 | 49.26716 | 2.50694 | 37112 ft | 460 kts | 242° |
| 2026-04-29 05:46 | 49.23683 | 2.42079 | 37110 ft | 460 kts | 242° |
| 2026-04-29 05:46 | 49.20628 | 2.33473 | 37102 ft | 460 kts | 241° |
| 2026-04-29 05:47 | 49.17553 | 2.24918 | 37099 ft | 459 kts | 240° |
| 2026-04-29 05:47 | 49.14402 | 2.16437 | 37101 ft | 459 kts | 240° |
| 2026-04-29 05:48 | 49.11258 | 2.08020 | 37081 ft | 459 kts | 240° |
| 2026-04-29 05:48 | 49.08343 | 1.99356 | 37073 ft | 459 kts | 245° |
| 2026-04-29 05:49 | 49.05665 | 1.90532 | 37074 ft | 459 kts | 245° |
| 2026-04-29 05:49 | 49.03009 | 1.81678 | 37073 ft | 459 kts | 245° |
| 2026-04-29 05:50 | 49.00345 | 1.72839 | 37072 ft | 459 kts | 245° |
| 2026-04-29 05:50 | 48.97670 | 1.64021 | 37073 ft | 459 kts | 245° |
| 2026-04-29 05:51 | 48.94987 | 1.55219 | 37074 ft | 458 kts | 244° |
| 2026-04-29 05:51 | 48.92301 | 1.46438 | 37073 ft | 458 kts | 244° |
| 2026-04-29 05:52 | 48.89608 | 1.37661 | 37073 ft | 458 kts | 244° |
| 2026-04-29 05:52 | 48.86910 | 1.28901 | 37072 ft | 457 kts | 244° |
| 2026-04-29 05:53 | 48.84208 | 1.20159 | 37073 ft | 457 kts | 244° |
| 2026-04-29 05:53 | 48.81498 | 1.11428 | 37073 ft | 457 kts | 244° |
| 2026-04-29 05:54 | 48.78783 | 1.02706 | 37073 ft | 458 kts | 244° |
| 2026-04-29 05:54 | 48.76061 | 0.93991 | 37066 ft | 457 kts | 244° |
| 2026-04-29 05:55 | 48.73080 | 0.85511 | 37063 ft | 455 kts | 239° |
| 2026-04-29 05:55 | 48.69804 | 0.77302 | 37062 ft | 455 kts | 238° |
| 2026-04-29 05:56 | 48.66484 | 0.69150 | 37061 ft | 454 kts | 238° |
| 2026-04-29 05:56 | 48.63168 | 0.61025 | 37052 ft | 454 kts | 238° |
| 2026-04-29 05:57 | 48.59855 | 0.52915 | 37052 ft | 453 kts | 238° |
| 2026-04-29 05:57 | 48.56549 | 0.44836 | 37052 ft | 452 kts | 238° |
| 2026-04-29 05:58 | 48.53245 | 0.36789 | 37040 ft | 451 kts | 238° |
| 2026-04-29 05:58 | 48.49942 | 0.28757 | 37045 ft | 449 kts | 238° |
| 2026-04-29 05:59 | 48.46644 | 0.20767 | 37033 ft | 448 kts | 237° |
| 2026-04-29 05:59 | 48.43349 | 0.12821 | 37043 ft | 447 kts | 237° |
| 2026-04-29 06:00 | 48.40054 | 0.04890 | 37027 ft | 447 kts | 237° |
| 2026-04-29 06:00 | 48.36766 | -0.03018 | 37275 ft | 445 kts | 237° |
| 2026-04-29 06:01 | 48.33271 | -0.10825 | 37222 ft | 458 kts | 232° |
| 2026-04-29 06:01 | 48.29368 | -0.18452 | 37303 ft | 467 kts | 231° |
| 2026-04-29 06:02 | 48.27381 | -0.22309 | 37545 ft | 467 kts | 231° |
| 2026-04-29 06:02 | 48.25410 | -0.26176 | 37778 ft | 467 kts | 231° |
| 2026-04-29 06:02 | 48.23438 | -0.30054 | 37947 ft | 468 kts | 231° |
| 2026-04-29 06:02 | 48.21452 | -0.33927 | 38152 ft | 469 kts | 231° |
| 2026-04-29 06:03 | 48.19459 | -0.37802 | 38342 ft | 469 kts | 231° |
| 2026-04-29 06:03 | 48.17469 | -0.41673 | 38523 ft | 470 kts | 231° |
| 2026-04-29 06:03 | 48.15474 | -0.45558 | 38672 ft | 471 kts | 231° |
| 2026-04-29 06:03 | 48.13475 | -0.49451 | 38837 ft | 472 kts | 231° |
| 2026-04-29 06:04 | 48.11476 | -0.53342 | 38967 ft | 473 kts | 231° |
| 2026-04-29 06:04 | 48.09455 | -0.57270 | 38996 ft | 477 kts | 231° |
| 2026-04-29 06:04 | 48.05401 | -0.65133 | 38997 ft | 477 kts | 231° |
| 2026-04-29 06:05 | 48.01353 | -0.72968 | 38986 ft | 476 kts | 231° |
| 2026-04-29 06:05 | 47.97304 | -0.80777 | 38996 ft | 474 kts | 231° |
| 2026-04-29 06:06 | 47.93293 | -0.88495 | 38989 ft | 468 kts | 231° |
| 2026-04-29 06:06 | 47.89309 | -0.96138 | 38989 ft | 466 kts | 231° |
| 2026-04-29 06:07 | 47.85326 | -1.03760 | 38989 ft | 467 kts | 231° |
| 2026-04-29 06:07 | 47.81331 | -1.11375 | 38991 ft | 467 kts | 231° |
| 2026-04-29 06:08 | 47.77356 | -1.18929 | 38984 ft | 467 kts | 231° |
| 2026-04-29 06:08 | 47.73330 | -1.26564 | 38982 ft | 467 kts | 231° |
| 2026-04-29 06:09 | 47.69348 | -1.34089 | 38981 ft | 467 kts | 231° |
| 2026-04-29 06:09 | 47.65334 | -1.41662 | 38971 ft | 467 kts | 231° |
| 2026-04-29 06:10 | 47.61317 | -1.49216 | 38972 ft | 467 kts | 231° |
| 2026-04-29 06:10 | 47.57214 | -1.56681 | 38964 ft | 467 kts | 228° |
| 2026-04-29 06:11 | 47.52829 | -1.63787 | 38961 ft | 467 kts | 226° |
| 2026-04-29 06:11 | 47.48415 | -1.70843 | 38962 ft | 467 kts | 227° |
| 2026-04-29 06:12 | 47.44045 | -1.77931 | 38962 ft | 466 kts | 227° |
| 2026-04-29 06:12 | 47.39689 | -1.85045 | 38962 ft | 467 kts | 227° |
| 2026-04-29 06:13 | 47.35191 | -1.91962 | 38964 ft | 468 kts | 219° |
| 2026-04-29 06:13 | 47.29868 | -1.97456 | 38961 ft | 467 kts | 212° |
| 2026-04-29 06:14 | 47.24316 | -2.02448 | 38961 ft | 467 kts | 210° |
| 2026-04-29 06:14 | 47.19687 | -2.06525 | 38961 ft | 467 kts | 210° |
| 2026-04-29 06:15 | 47.14125 | -2.11442 | 38962 ft | 466 kts | 211° |
| 2026-04-29 06:15 | 47.07693 | -2.17148 | 38962 ft | 464 kts | 211° |
| 2026-04-29 06:16 | 47.03073 | -2.21254 | 38962 ft | 463 kts | 211° |
| 2026-04-29 06:16 | 46.97553 | -2.26133 | 38961 ft | 463 kts | 211° |
| 2026-04-29 06:17 | 46.92037 | -2.30991 | 38961 ft | 462 kts | 211° |
| 2026-04-29 06:17 | 46.86877 | -2.36545 | 38961 ft | 461 kts | 223° |
| 2026-04-29 06:18 | 46.82950 | -2.43937 | 38963 ft | 463 kts | 237° |
| 2026-04-29 06:18 | 46.79704 | -2.52010 | 38955 ft | 465 kts | 238° |
| 2026-04-29 06:19 | 46.76518 | -2.60237 | 38951 ft | 465 kts | 238° |
| 2026-04-29 06:19 | 46.73289 | -2.68476 | 38954 ft | 465 kts | 238° |
| 2026-04-29 06:20 | 46.70071 | -2.76578 | 38954 ft | 465 kts | 238° |
| 2026-04-29 06:20 | 46.66821 | -2.84709 | 38951 ft | 465 kts | 238° |
| 2026-04-29 06:21 | 46.63564 | -2.92844 | 38952 ft | 466 kts | 238° |
| 2026-04-29 06:21 | 46.60296 | -3.00975 | 38953 ft | 466 kts | 238° |
| 2026-04-29 06:22 | 46.56882 | -3.08961 | 38955 ft | 465 kts | 231° |
| 2026-04-29 06:22 | 46.52621 | -3.15976 | 38951 ft | 463 kts | 226° |
| 2026-04-29 06:23 | 46.48150 | -3.22716 | 38945 ft | 464 kts | 225° |
| 2026-04-29 06:23 | 46.43649 | -3.29418 | 38944 ft | 464 kts | 225° |
| 2026-04-29 06:24 | 46.39150 | -3.36132 | 38940 ft | 464 kts | 225° |
| 2026-04-29 06:24 | 46.34658 | -3.42835 | 38943 ft | 465 kts | 225° |
| 2026-04-29 06:25 | 46.30155 | -3.49553 | 38944 ft | 464 kts | 225° |
| 2026-04-29 06:25 | 46.25654 | -3.56243 | 38946 ft | 464 kts | 225° |
| 2026-04-29 06:26 | 46.21149 | -3.62936 | 38944 ft | 464 kts | 225° |
| 2026-04-29 06:26 | 46.16640 | -3.69607 | 38942 ft | 464 kts | 225° |
| 2026-04-29 06:27 | 46.12127 | -3.76283 | 38946 ft | 464 kts | 225° |
| 2026-04-29 06:27 | 46.07613 | -3.82925 | 38945 ft | 464 kts | 225° |
| 2026-04-29 06:28 | 46.03123 | -3.89513 | 38939 ft | 464 kts | 225° |
| 2026-04-29 06:28 | 45.98567 | -3.96185 | 38945 ft | 464 kts | 225° |
| 2026-04-29 06:29 | 45.94044 | -4.02802 | 38930 ft | 464 kts | 225° |
| 2026-04-29 06:29 | 45.89546 | -4.09362 | 38935 ft | 464 kts | 225° |
| 2026-04-29 06:30 | 45.82744 | -4.19257 | 38932 ft | 464 kts | 225° |
| 2026-04-29 06:31 | 45.78208 | -4.25832 | 38936 ft | 464 kts | 225° |
| 2026-04-29 06:31 | 45.73668 | -4.32388 | 38914 ft | 463 kts | 225° |
| 2026-04-29 06:32 | 45.69125 | -4.38951 | 38932 ft | 464 kts | 225° |
| 2026-04-29 06:32 | 45.64574 | -4.45499 | 38932 ft | 464 kts | 225° |
| 2026-04-29 06:33 | 45.60010 | -4.52043 | 38911 ft | 465 kts | 224° |
| 2026-04-29 06:33 | 45.55448 | -4.58578 | 38910 ft | 465 kts | 224° |
| 2026-04-29 06:34 | 45.50881 | -4.65100 | 38914 ft | 464 kts | 224° |
| 2026-04-29 06:34 | 45.46317 | -4.71602 | 38909 ft | 464 kts | 224° |
| 2026-04-29 06:35 | 45.41742 | -4.78093 | 38908 ft | 465 kts | 224° |
| 2026-04-29 06:35 | 45.37164 | -4.84593 | 38905 ft | 465 kts | 224° |
| 2026-04-29 06:36 | 45.32582 | -4.91072 | 38908 ft | 465 kts | 224° |
| 2026-04-29 06:36 | 45.27980 | -4.97554 | 38899 ft | 465 kts | 224° |
| 2026-04-29 06:37 | 45.23393 | -5.04009 | 38898 ft | 465 kts | 224° |
| 2026-04-29 06:37 | 45.18833 | -5.10419 | 38898 ft | 464 kts | 224° |
| 2026-04-29 06:38 | 45.14237 | -5.16859 | 38896 ft | 465 kts | 224° |
| 2026-04-29 06:38 | 45.09633 | -5.23291 | 38893 ft | 465 kts | 224° |
| 2026-04-29 06:39 | 45.05031 | -5.29704 | 38887 ft | 464 kts | 224° |
| 2026-04-29 06:39 | 45.00432 | -5.36099 | 38887 ft | 464 kts | 224° |
| 2026-04-29 06:40 | 44.95828 | -5.42487 | 38885 ft | 463 kts | 224° |
| 2026-04-29 06:40 | 44.91230 | -5.48853 | 38888 ft | 463 kts | 224° |
| 2026-04-29 06:41 | 44.86631 | -5.55203 | 38880 ft | 462 kts | 224° |
| 2026-04-29 06:41 | 44.82037 | -5.61531 | 38876 ft | 462 kts | 224° |
| 2026-04-29 06:42 | 44.77446 | -5.67842 | 38880 ft | 461 kts | 224° |
| 2026-04-29 06:42 | 44.72859 | -5.74134 | 38879 ft | 461 kts | 224° |
| 2026-04-29 06:43 | 44.68322 | -5.80477 | 38879 ft | 460 kts | 227° |
| 2026-04-29 06:43 | 44.64754 | -5.87913 | 38880 ft | 461 kts | 243° |
| 2026-04-29 06:44 | 44.62218 | -5.96203 | 38879 ft | 463 kts | 246° |
| 2026-04-29 06:44 | 44.59853 | -6.04602 | 38870 ft | 463 kts | 247° |
| 2026-04-29 06:45 | 44.57480 | -6.13014 | 38866 ft | 464 kts | 246° |
| 2026-04-29 06:45 | 44.55072 | -6.21406 | 38871 ft | 464 kts | 246° |
| 2026-04-29 06:46 | 44.52647 | -6.29791 | 38868 ft | 464 kts | 246° |
| 2026-04-29 06:46 | 44.50216 | -6.38163 | 38859 ft | 464 kts | 246° |
| 2026-04-29 06:47 | 44.47784 | -6.46518 | 38860 ft | 463 kts | 246° |
| 2026-04-29 06:47 | 44.45341 | -6.54878 | 38860 ft | 464 kts | 246° |
| 2026-04-29 06:48 | 44.42888 | -6.63239 | 38860 ft | 464 kts | 246° |
| 2026-04-29 06:48 | 44.40446 | -6.71536 | 38860 ft | 465 kts | 246° |
| 2026-04-29 06:49 | 44.37978 | -6.79898 | 38859 ft | 465 kts | 246° |
| 2026-04-29 06:49 | 44.35487 | -6.88312 | 38860 ft | 466 kts | 246° |
| 2026-04-29 06:50 | 44.33018 | -6.96618 | 38859 ft | 466 kts | 246° |
| 2026-04-29 06:50 | 44.30524 | -7.04985 | 38860 ft | 467 kts | 246° |
| 2026-04-29 06:51 | 44.28021 | -7.13358 | 38860 ft | 468 kts | 246° |
| 2026-04-29 06:51 | 44.25509 | -7.21732 | 38859 ft | 468 kts | 246° |
| 2026-04-29 06:52 | 44.22991 | -7.30097 | 38851 ft | 468 kts | 246° |
| 2026-04-29 06:52 | 44.20462 | -7.38473 | 38850 ft | 468 kts | 246° |
| 2026-04-29 06:53 | 44.17926 | -7.46838 | 38850 ft | 468 kts | 246° |
| 2026-04-29 06:53 | 44.15390 | -7.55182 | 38850 ft | 469 kts | 246° |
| 2026-04-29 06:54 | 44.12840 | -7.63542 | 38850 ft | 469 kts | 246° |
| 2026-04-29 06:54 | 44.10285 | -7.71894 | 38851 ft | 469 kts | 246° |
| 2026-04-29 06:55 | 44.07725 | -7.80239 | 38844 ft | 469 kts | 246° |
| 2026-04-29 06:55 | 44.05156 | -7.88574 | 38841 ft | 469 kts | 246° |
| 2026-04-29 06:56 | 44.02600 | -7.96845 | 38842 ft | 468 kts | 246° |
| 2026-04-29 06:56 | 44.00008 | -8.05202 | 38841 ft | 468 kts | 245° |
| 2026-04-29 06:57 | 43.97443 | -8.13439 | 38841 ft | 468 kts | 245° |
| 2026-04-29 06:57 | 43.94857 | -8.21738 | 38841 ft | 468 kts | 245° |
| 2026-04-29 06:58 | 43.92262 | -8.30034 | 38841 ft | 469 kts | 245° |
| 2026-04-29 06:58 | 43.89661 | -8.38321 | 38839 ft | 469 kts | 245° |
| 2026-04-29 06:59 | 43.87049 | -8.46617 | 38832 ft | 469 kts | 245° |
| 2026-04-29 06:59 | 43.84432 | -8.54904 | 38832 ft | 470 kts | 245° |
| 2026-04-29 07:00 | 43.81801 | -8.63197 | 38832 ft | 470 kts | 245° |
| 2026-04-29 07:00 | 43.79165 | -8.71490 | 38832 ft | 471 kts | 245° |
| 2026-04-29 07:01 | 43.76522 | -8.79779 | 38831 ft | 471 kts | 245° |
| 2026-04-29 07:01 | 43.73867 | -8.88082 | 38832 ft | 472 kts | 245° |
| 2026-04-29 07:02 | 43.71202 | -8.96384 | 38831 ft | 473 kts | 245° |
| 2026-04-29 07:02 | 43.68977 | -9.03291 | 38831 ft | 473 kts | 245° |
| 2026-04-29 07:03 | 43.66296 | -9.11594 | 38832 ft | 474 kts | 245° |
| 2026-04-29 07:03 | 43.63608 | -9.19898 | 38832 ft | 474 kts | 245° |
| 2026-04-29 07:04 | 43.60906 | -9.28213 | 38832 ft | 475 kts | 245° |
| 2026-04-29 07:04 | 43.58197 | -9.36528 | 38832 ft | 475 kts | 245° |
| 2026-04-29 07:05 | 43.55484 | -9.44834 | 38831 ft | 475 kts | 245° |
| 2026-04-29 07:05 | 43.52760 | -9.53141 | 38836 ft | 475 kts | 245° |
| 2026-04-29 07:06 | 43.50027 | -9.61452 | 38832 ft | 476 kts | 245° |
| 2026-04-29 07:06 | 43.47286 | -9.69754 | 38832 ft | 476 kts | 245° |
| 2026-04-29 07:07 | 43.44558 | -9.77995 | 38832 ft | 476 kts | 245° |
| 2026-04-29 07:07 | 43.41807 | -9.86284 | 38832 ft | 476 kts | 245° |
| 2026-04-29 07:08 | 43.39051 | -9.94570 | 38832 ft | 476 kts | 245° |
| 2026-04-29 07:08 | 43.36286 | -10.02845 | 38832 ft | 476 kts | 245° |
| 2026-04-29 07:09 | 43.33510 | -10.11126 | 38832 ft | 478 kts | 245° |
| 2026-04-29 07:09 | 43.30721 | -10.19422 | 38831 ft | 479 kts | 245° |
| 2026-04-29 07:10 | 43.27919 | -10.27732 | 38832 ft | 479 kts | 245° |
| 2026-04-29 07:10 | 43.25116 | -10.36019 | 38832 ft | 479 kts | 245° |
| 2026-04-29 07:11 | 43.22302 | -10.44311 | 38832 ft | 479 kts | 245° |
| 2026-04-29 07:11 | 43.19484 | -10.52595 | 38832 ft | 480 kts | 245° |
| 2026-04-29 07:12 | 43.16658 | -10.60877 | 38831 ft | 480 kts | 245° |
| 2026-04-29 07:12 | 43.13824 | -10.69159 | 38832 ft | 480 kts | 245° |
| 2026-04-29 07:13 | 43.10987 | -10.77424 | 38832 ft | 480 kts | 245° |
| 2026-04-29 07:13 | 43.08136 | -10.85703 | 38832 ft | 480 kts | 245° |
| 2026-04-29 07:14 | 43.05283 | -10.93957 | 38833 ft | 481 kts | 245° |
| 2026-04-29 07:14 | 43.02419 | -11.02228 | 38831 ft | 481 kts | 245° |
| 2026-04-29 07:15 | 42.99548 | -11.10494 | 38832 ft | 482 kts | 245° |
| 2026-04-29 07:15 | 42.96687 | -11.18703 | 38832 ft | 482 kts | 245° |
| 2026-04-29 07:16 | 42.93800 | -11.26960 | 38832 ft | 482 kts | 245° |
| 2026-04-29 07:16 | 42.90908 | -11.35206 | 38830 ft | 482 kts | 245° |
| 2026-04-29 07:17 | 42.88009 | -11.43449 | 38823 ft | 482 kts | 245° |
| 2026-04-29 07:17 | 42.85099 | -11.51692 | 38823 ft | 482 kts | 245° |
| 2026-04-29 07:18 | 42.82189 | -11.59923 | 38821 ft | 481 kts | 245° |
| 2026-04-29 07:18 | 42.79281 | -11.68125 | 38822 ft | 481 kts | 245° |
| 2026-04-29 07:19 | 42.76360 | -11.76332 | 38823 ft | 482 kts | 245° |
| 2026-04-29 07:19 | 42.73434 | -11.84530 | 38822 ft | 482 kts | 244° |
| 2026-04-29 07:20 | 42.70500 | -11.92719 | 38822 ft | 482 kts | 244° |
| 2026-04-29 07:20 | 42.66989 | -12.00464 | 38823 ft | 483 kts | 230° |
| 2026-04-29 07:21 | 42.62199 | -12.06859 | 38824 ft | 484 kts | 222° |
| 2026-04-29 07:21 | 42.57109 | -12.12863 | 38823 ft | 485 kts | 221° |
| 2026-04-29 07:22 | 42.51981 | -12.18814 | 38822 ft | 485 kts | 221° |
| 2026-04-29 07:22 | 42.46896 | -12.24749 | 38822 ft | 485 kts | 221° |
| 2026-04-29 07:23 | 42.41792 | -12.30730 | 38822 ft | 485 kts | 221° |
| 2026-04-29 07:23 | 42.36695 | -12.36697 | 38823 ft | 485 kts | 221° |
| 2026-04-29 07:24 | 42.31592 | -12.42657 | 38823 ft | 485 kts | 221° |
| 2026-04-29 07:24 | 42.26482 | -12.48611 | 38823 ft | 485 kts | 221° |
| 2026-04-29 07:25 | 42.21373 | -12.54550 | 38822 ft | 484 kts | 221° |
| 2026-04-29 07:25 | 42.16263 | -12.60475 | 38824 ft | 485 kts | 221° |
| 2026-04-29 07:26 | 42.11136 | -12.66404 | 38823 ft | 485 kts | 221° |
| 2026-04-29 07:26 | 42.06013 | -12.72318 | 38823 ft | 486 kts | 221° |
| 2026-04-29 07:27 | 42.00883 | -12.78227 | 38822 ft | 486 kts | 221° |
| 2026-04-29 07:27 | 41.95747 | -12.84131 | 38822 ft | 485 kts | 221° |
| 2026-04-29 07:28 | 41.90621 | -12.90011 | 38824 ft | 484 kts | 221° |
| 2026-04-29 07:28 | 41.85506 | -12.95865 | 38823 ft | 484 kts | 221° |
| 2026-04-29 07:29 | 41.80386 | -13.01712 | 38823 ft | 483 kts | 221° |
| 2026-04-29 07:29 | 41.75260 | -13.07549 | 38823 ft | 483 kts | 221° |
| 2026-04-29 07:30 | 41.70133 | -13.13378 | 38829 ft | 484 kts | 221° |
| 2026-04-29 07:30 | 41.64999 | -13.19203 | 38832 ft | 484 kts | 221° |
| 2026-04-29 07:31 | 41.57298 | -13.27916 | 38832 ft | 484 kts | 221° |
| 2026-04-29 07:31 | 41.52151 | -13.33724 | 38832 ft | 484 kts | 221° |
| 2026-04-29 07:32 | 41.47004 | -13.39518 | 38832 ft | 484 kts | 221° |
| 2026-04-29 07:32 | 41.41889 | -13.45265 | 38832 ft | 484 kts | 221° |
| 2026-04-29 07:33 | 41.36737 | -13.51042 | 38832 ft | 484 kts | 221° |
| 2026-04-29 07:33 | 41.31580 | -13.56812 | 38832 ft | 484 kts | 221° |
| 2026-04-29 07:34 | 41.26420 | -13.62573 | 38858 ft | 484 kts | 221° |
| 2026-04-29 07:34 | 41.21261 | -13.68319 | 38860 ft | 484 kts | 221° |
| 2026-04-29 07:35 | 41.16098 | -13.74058 | 38860 ft | 484 kts | 221° |
| 2026-04-29 07:35 | 41.10937 | -13.79782 | 38861 ft | 484 kts | 221° |
| 2026-04-29 07:36 | 41.05776 | -13.85497 | 38860 ft | 483 kts | 221° |
| 2026-04-29 07:36 | 41.00610 | -13.91204 | 38859 ft | 483 kts | 221° |
| 2026-04-29 07:37 | 40.95445 | -13.96894 | 38859 ft | 483 kts | 221° |
| 2026-04-29 07:37 | 40.90278 | -14.02575 | 38860 ft | 483 kts | 222° |
| 2026-04-29 07:38 | 40.85105 | -14.08251 | 38860 ft | 484 kts | 222° |
| 2026-04-29 07:38 | 40.79925 | -14.13926 | 38860 ft | 484 kts | 222° |
| 2026-04-29 07:39 | 40.74748 | -14.19585 | 38860 ft | 483 kts | 222° |
| 2026-04-29 07:39 | 40.69570 | -14.25235 | 38860 ft | 483 kts | 222° |
| 2026-04-29 07:40 | 40.64386 | -14.30877 | 38860 ft | 483 kts | 222° |
| 2026-04-29 07:40 | 40.59208 | -14.36501 | 38860 ft | 483 kts | 222° |
| 2026-04-29 07:41 | 40.54020 | -14.42122 | 38860 ft | 482 kts | 222° |
| 2026-04-29 07:41 | 40.48837 | -14.47724 | 38861 ft | 482 kts | 222° |
| 2026-04-29 07:42 | 40.43692 | -14.53281 | 38860 ft | 482 kts | 222° |
| 2026-04-29 07:42 | 40.38505 | -14.58870 | 38860 ft | 482 kts | 222° |
| 2026-04-29 07:43 | 40.33316 | -14.64447 | 38860 ft | 482 kts | 221° |
| 2026-04-29 07:43 | 40.28127 | -14.70013 | 38862 ft | 482 kts | 221° |
| 2026-04-29 07:44 | 40.22937 | -14.75571 | 38860 ft | 482 kts | 221° |
| 2026-04-29 07:44 | 40.17747 | -14.81117 | 38860 ft | 482 kts | 221° |
| 2026-04-29 07:45 | 40.12549 | -14.86659 | 38860 ft | 482 kts | 221° |
| 2026-04-29 07:45 | 40.07352 | -14.92190 | 38867 ft | 482 kts | 221° |
| 2026-04-29 07:46 | 40.02521 | -14.98174 | 38887 ft | 478 kts | 234° |
| 2026-04-29 07:46 | 40.00639 | -15.01729 | 39066 ft | 474 kts | 243° |
| 2026-04-29 07:46 | 39.99221 | -15.05587 | 39298 ft | 470 kts | 251° |
| 2026-04-29 07:47 | 39.98261 | -15.09638 | 39591 ft | 465 kts | 257° |
| 2026-04-29 07:47 | 39.97479 | -15.13714 | 39840 ft | 463 kts | 258° |
| 2026-04-29 07:47 | 39.96053 | -15.21918 | 39869 ft | 465 kts | 259° |
| 2026-04-29 07:48 | 39.94641 | -15.30137 | 39869 ft | 465 kts | 259° |
| 2026-04-29 07:48 | 39.93188 | -15.38352 | 39869 ft | 465 kts | 258° |
| 2026-04-29 07:49 | 39.91710 | -15.46552 | 39868 ft | 465 kts | 258° |
| 2026-04-29 07:49 | 39.90477 | -15.53371 | 39870 ft | 465 kts | 258° |
| 2026-04-29 07:50 | 39.88738 | -15.62952 | 39870 ft | 466 kts | 258° |
| 2026-04-29 07:50 | 39.87496 | -15.69770 | 39869 ft | 466 kts | 258° |
| 2026-04-29 07:51 | 39.85995 | -15.77980 | 39870 ft | 466 kts | 258° |
| 2026-04-29 07:51 | 39.84486 | -15.86202 | 39870 ft | 467 kts | 258° |
| 2026-04-29 07:52 | 39.82969 | -15.94423 | 39868 ft | 467 kts | 258° |
| 2026-04-29 07:52 | 39.81447 | -16.02634 | 39869 ft | 467 kts | 258° |
| 2026-04-29 07:53 | 39.79920 | -16.10840 | 39869 ft | 467 kts | 258° |
| 2026-04-29 07:53 | 39.78384 | -16.19054 | 39869 ft | 467 kts | 258° |
| 2026-04-29 07:54 | 39.76848 | -16.27237 | 39869 ft | 466 kts | 258° |
| 2026-04-29 07:54 | 39.75308 | -16.35415 | 39869 ft | 466 kts | 258° |
| 2026-04-29 07:55 | 39.73766 | -16.43577 | 39904 ft | 465 kts | 258° |
| 2026-04-29 07:55 | 39.72218 | -16.51722 | 39919 ft | 464 kts | 258° |
| 2026-04-29 07:56 | 39.70665 | -16.59862 | 39919 ft | 464 kts | 258° |
| 2026-04-29 07:56 | 39.69109 | -16.67986 | 39917 ft | 463 kts | 258° |
| 2026-04-29 07:57 | 39.67550 | -16.76085 | 39916 ft | 462 kts | 258° |
| 2026-04-29 07:57 | 39.65989 | -16.84170 | 39883 ft | 461 kts | 258° |
| 2026-04-29 07:58 | 39.64425 | -16.92235 | 39878 ft | 461 kts | 258° |
| 2026-04-29 07:58 | 39.62856 | -17.00291 | 39878 ft | 460 kts | 258° |
| 2026-04-29 07:59 | 39.61282 | -17.08334 | 39878 ft | 460 kts | 258° |
| 2026-04-29 07:59 | 39.59707 | -17.16361 | 39879 ft | 459 kts | 258° |
| 2026-04-29 08:00 | 39.58129 | -17.24367 | 39878 ft | 458 kts | 257° |
| 2026-04-29 08:00 | 39.56545 | -17.32373 | 39879 ft | 458 kts | 257° |
| 2026-04-29 08:01 | 39.54957 | -17.40376 | 39879 ft | 458 kts | 257° |
| 2026-04-29 08:01 | 39.53364 | -17.48378 | 39879 ft | 459 kts | 257° |
| 2026-04-29 08:02 | 39.51759 | -17.56379 | 39879 ft | 459 kts | 257° |
| 2026-04-29 08:02 | 39.50163 | -17.64321 | 39879 ft | 459 kts | 257° |
| 2026-04-29 08:03 | 39.48552 | -17.72316 | 39879 ft | 459 kts | 257° |
| 2026-04-29 08:03 | 39.46934 | -17.80309 | 39879 ft | 459 kts | 257° |
| 2026-04-29 08:04 | 39.45311 | -17.88301 | 39878 ft | 459 kts | 257° |
| 2026-04-29 08:04 | 39.43682 | -17.96286 | 39878 ft | 459 kts | 257° |
| 2026-04-29 08:05 | 39.42046 | -18.04268 | 39878 ft | 459 kts | 257° |
| 2026-04-29 08:05 | 39.40407 | -18.12241 | 39878 ft | 459 kts | 257° |
| 2026-04-29 08:06 | 39.38763 | -18.20207 | 39879 ft | 458 kts | 257° |
| 2026-04-29 08:06 | 39.37118 | -18.28151 | 39877 ft | 457 kts | 257° |
| 2026-04-29 08:07 | 39.35468 | -18.36086 | 39878 ft | 457 kts | 257° |
| 2026-04-29 08:07 | 39.33814 | -18.44016 | 39878 ft | 457 kts | 257° |
| 2026-04-29 08:08 | 39.32155 | -18.51934 | 39879 ft | 457 kts | 257° |
| 2026-04-29 08:08 | 39.30488 | -18.59856 | 39878 ft | 457 kts | 257° |
| 2026-04-29 08:09 | 39.28820 | -18.67761 | 39879 ft | 456 kts | 257° |
| 2026-04-29 08:09 | 39.27146 | -18.75660 | 39878 ft | 456 kts | 257° |
| 2026-04-29 08:10 | 39.25470 | -18.83550 | 39879 ft | 456 kts | 257° |
| 2026-04-29 08:10 | 39.23787 | -18.91437 | 39878 ft | 455 kts | 256° |
| 2026-04-29 08:11 | 39.22111 | -18.99260 | 39878 ft | 455 kts | 256° |
| 2026-04-29 08:11 | 39.20420 | -19.07128 | 39878 ft | 456 kts | 256° |
| 2026-04-29 08:12 | 39.18723 | -19.14999 | 39877 ft | 455 kts | 256° |
| 2026-04-29 08:12 | 39.17021 | -19.22865 | 39879 ft | 455 kts | 256° |
| 2026-04-29 08:13 | 39.15317 | -19.30712 | 39879 ft | 455 kts | 256° |
| 2026-04-29 08:13 | 39.13606 | -19.38559 | 39879 ft | 454 kts | 256° |
| 2026-04-29 08:14 | 39.11892 | -19.46393 | 39879 ft | 455 kts | 256° |
| 2026-04-29 08:14 | 39.10172 | -19.54222 | 39878 ft | 454 kts | 256° |
| 2026-04-29 08:15 | 39.08448 | -19.62045 | 39879 ft | 455 kts | 256° |
| 2026-04-29 08:15 | 39.06717 | -19.69872 | 39878 ft | 454 kts | 256° |
| 2026-04-29 08:16 | 39.04983 | -19.77692 | 39879 ft | 454 kts | 256° |
| 2026-04-29 08:16 | 39.03243 | -19.85507 | 39878 ft | 454 kts | 256° |
| 2026-04-29 08:17 | 39.01498 | -19.93313 | 39879 ft | 454 kts | 256° |
| 2026-04-29 08:17 | 38.99625 | -20.01070 | 39882 ft | 455 kts | 251° |
| 2026-04-29 08:18 | 38.97358 | -20.08664 | 39879 ft | 455 kts | 250° |
| 2026-04-29 08:18 | 38.95028 | -20.16209 | 39878 ft | 454 kts | 250° |
| 2026-04-29 08:19 | 38.92688 | -20.23748 | 39878 ft | 454 kts | 250° |
| 2026-04-29 08:19 | 38.90351 | -20.31272 | 39869 ft | 454 kts | 250° |
| 2026-04-29 08:20 | 38.88019 | -20.38779 | 39869 ft | 452 kts | 250° |
| 2026-04-29 08:20 | 38.85682 | -20.46282 | 39870 ft | 452 kts | 250° |
| 2026-04-29 08:21 | 38.83345 | -20.53763 | 39868 ft | 452 kts | 250° |
| 2026-04-29 08:21 | 38.81002 | -20.61238 | 39869 ft | 452 kts | 250° |
| 2026-04-29 08:22 | 38.78654 | -20.68714 | 39869 ft | 452 kts | 250° |
| 2026-04-29 08:22 | 38.76303 | -20.76184 | 39870 ft | 451 kts | 249° |
| 2026-04-29 08:23 | 38.73965 | -20.83590 | 39869 ft | 451 kts | 249° |
| 2026-04-29 08:23 | 38.71593 | -20.91081 | 39869 ft | 451 kts | 249° |
| 2026-04-29 08:24 | 38.69250 | -20.98464 | 39869 ft | 451 kts | 249° |
| 2026-04-29 08:24 | 38.66885 | -21.05892 | 39869 ft | 450 kts | 249° |
| 2026-04-29 08:25 | 38.64517 | -21.13313 | 39869 ft | 450 kts | 249° |
| 2026-04-29 08:25 | 38.62146 | -21.20722 | 39869 ft | 450 kts | 249° |
| 2026-04-29 08:26 | 38.59775 | -21.28112 | 39870 ft | 449 kts | 249° |
| 2026-04-29 08:26 | 38.57408 | -21.35475 | 39868 ft | 448 kts | 249° |
| 2026-04-29 08:27 | 38.55037 | -21.42826 | 39869 ft | 447 kts | 248° |
| 2026-04-29 08:27 | 38.52661 | -21.50177 | 39869 ft | 447 kts | 248° |
| 2026-04-29 08:28 | 38.50288 | -21.57493 | 39866 ft | 446 kts | 248° |
| 2026-04-29 08:28 | 38.47906 | -21.64824 | 39859 ft | 446 kts | 248° |
| 2026-04-29 08:29 | 38.45525 | -21.72136 | 39860 ft | 446 kts | 248° |
| 2026-04-29 08:29 | 38.43142 | -21.79429 | 39859 ft | 445 kts | 248° |
| 2026-04-29 08:30 | 38.39564 | -21.90349 | 39859 ft | 444 kts | 248° |
| 2026-04-29 08:31 | 38.37173 | -21.97618 | 39859 ft | 444 kts | 248° |
| 2026-04-29 08:31 | 38.34783 | -22.04871 | 39859 ft | 444 kts | 248° |
| 2026-04-29 08:32 | 38.32408 | -22.12064 | 39859 ft | 444 kts | 248° |
| 2026-04-29 08:32 | 38.30011 | -22.19303 | 39860 ft | 444 kts | 248° |
| 2026-04-29 08:33 | 38.27608 | -22.26533 | 39859 ft | 444 kts | 248° |
| 2026-04-29 08:33 | 38.25200 | -22.33763 | 39861 ft | 444 kts | 248° |
| 2026-04-29 08:34 | 38.22784 | -22.40992 | 39860 ft | 444 kts | 247° |
| 2026-04-29 08:34 | 38.20366 | -22.48222 | 39859 ft | 445 kts | 247° |
| 2026-04-29 08:35 | 38.17943 | -22.55451 | 39860 ft | 445 kts | 247° |
| 2026-04-29 08:35 | 38.15513 | -22.62675 | 39861 ft | 445 kts | 247° |
| 2026-04-29 08:36 | 38.13078 | -22.69901 | 39861 ft | 445 kts | 247° |
| 2026-04-29 08:36 | 38.10642 | -22.77113 | 39861 ft | 445 kts | 246° |
| 2026-04-29 08:37 | 38.08609 | -22.83117 | 39860 ft | 445 kts | 246° |
| 2026-04-29 08:37 | 38.06156 | -22.90345 | 39860 ft | 446 kts | 246° |
| 2026-04-29 08:38 | 38.03701 | -22.97563 | 39862 ft | 446 kts | 246° |
| 2026-04-29 08:38 | 38.01239 | -23.04779 | 39859 ft | 446 kts | 246° |
| 2026-04-29 08:39 | 37.98765 | -23.12006 | 39862 ft | 447 kts | 246° |
| 2026-04-29 08:39 | 37.96292 | -23.19219 | 39859 ft | 445 kts | 245° |
| 2026-04-29 08:39 | 37.95256 | -23.22919 | 39685 ft | 446 kts | 255° |
| 2026-04-29 08:40 | 37.94780 | -23.26767 | 39300 ft | 440 kts | 264° |
| 2026-04-29 08:40 | 37.94617 | -23.30623 | 38781 ft | 437 kts | 265° |
| 2026-04-29 08:40 | 37.94497 | -23.34462 | 38168 ft | 435 kts | 265° |
| 2026-04-29 08:40 | 37.94381 | -23.38282 | 37542 ft | 434 kts | 265° |
| 2026-04-29 08:41 | 37.94263 | -23.42094 | 36905 ft | 432 kts | 265° |
| 2026-04-29 08:41 | 37.94142 | -23.45892 | 36287 ft | 431 kts | 265° |
| 2026-04-29 08:41 | 37.94022 | -23.49637 | 35650 ft | 430 kts | 265° |
| 2026-04-29 08:41 | 37.93899 | -23.53470 | 35000 ft | 430 kts | 265° |
| 2026-04-29 08:42 | 37.93774 | -23.57257 | 34255 ft | 432 kts | 265° |
| 2026-04-29 08:42 | 37.93647 | -23.61083 | 33504 ft | 437 kts | 265° |
| 2026-04-29 08:42 | 37.93521 | -23.64908 | 32744 ft | 442 kts | 265° |
| 2026-04-29 08:42 | 37.93389 | -23.68824 | 31953 ft | 446 kts | 265° |
| 2026-04-29 08:43 | 37.93255 | -23.72754 | 31131 ft | 448 kts | 265° |
| 2026-04-29 08:43 | 37.93120 | -23.76714 | 30292 ft | 451 kts | 265° |
| 2026-04-29 08:43 | 37.92982 | -23.80695 | 29431 ft | 454 kts | 265° |
| 2026-04-29 08:43 | 37.92842 | -23.84695 | 28666 ft | 454 kts | 265° |
| 2026-04-29 08:44 | 37.92703 | -23.88676 | 28042 ft | 450 kts | 265° |
| 2026-04-29 08:44 | 37.92564 | -23.92619 | 27422 ft | 447 kts | 265° |
| 2026-04-29 08:44 | 37.92423 | -23.96538 | 26798 ft | 443 kts | 265° |
| 2026-04-29 08:44 | 37.92282 | -24.00423 | 26179 ft | 440 kts | 265° |
| 2026-04-29 08:45 | 37.92141 | -24.04273 | 25562 ft | 437 kts | 265° |
| 2026-04-29 08:45 | 37.91999 | -24.08104 | 24933 ft | 433 kts | 265° |
| 2026-04-29 08:45 | 37.91859 | -24.11894 | 24310 ft | 430 kts | 265° |
| 2026-04-29 08:45 | 37.91717 | -24.15664 | 23716 ft | 427 kts | 265° |
| 2026-04-29 08:46 | 37.91575 | -24.19406 | 23103 ft | 424 kts | 265° |
| 2026-04-29 08:46 | 37.91433 | -24.23124 | 22489 ft | 420 kts | 265° |
| 2026-04-29 08:46 | 37.91291 | -24.26800 | 21890 ft | 416 kts | 265° |
| 2026-04-29 08:46 | 37.91151 | -24.30396 | 21296 ft | 412 kts | 265° |
| 2026-04-29 08:47 | 37.91011 | -24.33998 | 20692 ft | 407 kts | 265° |
| 2026-04-29 08:47 | 37.90869 | -24.37556 | 20087 ft | 403 kts | 265° |
| 2026-04-29 08:47 | 37.90729 | -24.41072 | 19489 ft | 398 kts | 265° |
| 2026-04-29 08:47 | 37.90589 | -24.44566 | 18886 ft | 395 kts | 265° |
| 2026-04-29 08:48 | 37.90450 | -24.48020 | 18277 ft | 391 kts | 265° |
| 2026-04-29 08:48 | 37.90310 | -24.51446 | 17674 ft | 388 kts | 265° |
| 2026-04-29 08:48 | 37.90170 | -24.54884 | 17061 ft | 384 kts | 265° |
| 2026-04-29 08:48 | 37.90033 | -24.58201 | 16465 ft | 381 kts | 265° |
| 2026-04-29 08:49 | 37.89894 | -24.61536 | 15855 ft | 378 kts | 265° |
| 2026-04-29 08:49 | 37.89755 | -24.64857 | 15239 ft | 376 kts | 265° |
| 2026-04-29 08:49 | 37.89618 | -24.68146 | 14616 ft | 373 kts | 265° |
| 2026-04-29 08:49 | 37.89480 | -24.71416 | 14008 ft | 370 kts | 265° |
| 2026-04-29 08:50 | 37.89343 | -24.74648 | 13402 ft | 366 kts | 265° |
| 2026-04-29 08:50 | 37.89168 | -24.77854 | 12808 ft | 364 kts | 261° |
| 2026-04-29 08:50 | 37.88562 | -24.80924 | 12271 ft | 357 kts | 246° |
| 2026-04-29 08:50 | 37.87304 | -24.83601 | 11691 ft | 352 kts | 230° |
| 2026-04-29 08:51 | 37.85679 | -24.85900 | 11129 ft | 349 kts | 225° |
| 2026-04-29 08:51 | 37.84029 | -24.88091 | 10856 ft | 336 kts | 225° |
| 2026-04-29 08:51 | 37.82467 | -24.90171 | 10741 ft | 317 kts | 225° |
| 2026-04-29 08:51 | 37.80993 | -24.92141 | 10636 ft | 300 kts | 225° |
| 2026-04-29 08:52 | 37.79598 | -24.94012 | 10526 ft | 285 kts | 225° |
| 2026-04-29 08:52 | 37.78268 | -24.95794 | 10408 ft | 271 kts | 225° |
| 2026-04-29 08:52 | 37.77009 | -24.97483 | 10290 ft | 259 kts | 224° |
| 2026-04-29 08:52 | 37.75777 | -24.99133 | 10184 ft | 258 kts | 224° |
| 2026-04-29 08:53 | 37.74548 | -25.00783 | 10067 ft | 258 kts | 224° |
| 2026-04-29 08:53 | 37.73315 | -25.02435 | 9786 ft | 257 kts | 224° |
| 2026-04-29 08:53 | 37.72059 | -25.04114 | 9559 ft | 271 kts | 224° |
| 2026-04-29 08:53 | 37.70747 | -25.05870 | 9463 ft | 275 kts | 224° |
| 2026-04-29 08:54 | 37.69443 | -25.07622 | 8990 ft | 274 kts | 224° |
| 2026-04-29 08:54 | 37.68133 | -25.09376 | 8533 ft | 274 kts | 224° |
| 2026-04-29 08:54 | 37.66832 | -25.11118 | 8198 ft | 272 kts | 224° |
| 2026-04-29 08:54 | 37.65537 | -25.12852 | 7887 ft | 271 kts | 224° |
| 2026-04-29 08:55 | 37.64246 | -25.14578 | 7573 ft | 269 kts | 224° |
| 2026-04-29 08:55 | 37.62967 | -25.16288 | 7259 ft | 268 kts | 224° |
| 2026-04-29 08:55 | 37.61689 | -25.17991 | 6945 ft | 266 kts | 223° |
| 2026-04-29 08:55 | 37.60461 | -25.19725 | 6616 ft | 265 kts | 230° |
| 2026-04-29 08:56 | 37.59665 | -25.21824 | 6290 ft | 271 kts | 254° |
| 2026-04-29 08:56 | 37.59715 | -25.24215 | 5947 ft | 279 kts | 281° |
| 2026-04-29 08:56 | 37.60389 | -25.26487 | 5661 ft | 281 kts | 290° |
| 2026-04-29 08:56 | 37.61215 | -25.28757 | 5633 ft | 282 kts | 290° |
| 2026-04-29 08:57 | 37.61993 | -25.31015 | 5626 ft | 278 kts | 288° |
| 2026-04-29 08:57 | 37.62693 | -25.33203 | 5631 ft | 259 kts | 286° |
| 2026-04-29 08:57 | 37.63317 | -25.35214 | 5642 ft | 240 kts | 286° |
| 2026-04-29 08:57 | 37.63917 | -25.37121 | 5547 ft | 229 kts | 286° |
| 2026-04-29 08:58 | 37.64498 | -25.38965 | 5284 ft | 225 kts | 286° |
| 2026-04-29 08:58 | 37.65074 | -25.40793 | 4945 ft | 224 kts | 286° |
| 2026-04-29 08:58 | 37.65648 | -25.42619 | 4608 ft | 223 kts | 286° |
| 2026-04-29 08:58 | 37.66220 | -25.44428 | 4247 ft | 222 kts | 286° |
| 2026-04-29 08:59 | 37.66785 | -25.46227 | 3915 ft | 219 kts | 286° |
| 2026-04-29 08:59 | 37.67344 | -25.47999 | 3615 ft | 215 kts | 286° |
| 2026-04-29 08:59 | 37.67892 | -25.49736 | 3333 ft | 210 kts | 285° |
| 2026-04-29 08:59 | 37.68424 | -25.51424 | 3089 ft | 204 kts | 285° |
| 2026-04-29 09:00 | 37.68938 | -25.53055 | 2790 ft | 195 kts | 285° |
| 2026-04-29 09:00 | 37.69421 | -25.54592 | 2528 ft | 182 kts | 286° |
| 2026-04-29 09:00 | 37.69876 | -25.56038 | 2322 ft | 173 kts | 289° |
| 2026-04-29 09:00 | 37.70310 | -25.57422 | 2086 ft | 166 kts | 290° |
| 2026-04-29 09:01 | 37.70730 | -25.58752 | 1860 ft | 159 kts | 291° |
| 2026-04-29 09:01 | 37.71128 | -25.60015 | 1670 ft | 152 kts | 292° |
| 2026-04-29 09:01 | 37.71515 | -25.61242 | 1453 ft | 150 kts | 293° |
| 2026-04-29 09:01 | 37.71896 | -25.62454 | 1270 ft | 147 kts | 293° |
| 2026-04-29 09:02 | 37.72272 | -25.63649 | 1073 ft | 145 kts | 292° |
| 2026-04-29 09:02 | 37.72642 | -25.64829 | 876 ft | 143 kts | 292° |
| 2026-04-29 09:02 | 37.73008 | -25.65994 | 680 ft | 143 kts | 292° |
| 2026-04-29 09:02 | 37.73371 | -25.67161 | 447 ft | 142 kts | 292° |
| 2026-04-29 09:03 | 37.73739 | -25.68315 | 246 ft | 142 kts | 293° |
| 2026-04-29 09:03 | 37.74092 | -25.69423 | 229 ft | 118 kts | 292° |
| 2026-04-29 09:03 | 37.74286 | -25.70038 | 244 ft | 29 kts | 291° |
| 2026-04-29 09:03 | 37.74358 | -25.70196 | 250 ft | 16 kts | 306° |
| 2026-04-29 09:04 | 37.74422 | -25.70288 | 258 ft | 12 kts | 320° |
| 2026-04-29 09:04 | 37.74478 | -25.70346 | 264 ft | 9 kts | 321° |
| 2026-04-29 09:04 | 37.74520 | -25.70388 | 269 ft | 8 kts | 322° |
| 2026-04-29 09:04 | 37.74588 | -25.70468 | 275 ft | 13 kts | 309° |
| 2026-04-29 09:05 | 37.74631 | -25.70567 | 277 ft | 14 kts | 292° |
| 2026-04-29 09:05 | 37.74672 | -25.70695 | 277 ft | 17 kts | 291° |
| 2026-04-29 09:05 | 37.74718 | -25.70841 | 277 ft | 19 kts | 291° |
| 2026-04-29 09:05 | 37.74766 | -25.70994 | 277 ft | 15 kts | 292° |
| 2026-04-29 09:06 | 37.74798 | -25.71079 | 277 ft | 4 kts | 317° |
| 2026-04-29 09:06 | 37.74829 | -25.71073 | 277 ft | 6 kts | 22° |
| 2026-04-29 09:06 | 37.74850 | -25.71062 | 277 ft | 0 kts | 22° |